sensor_id;sensor_type;location;lat;lon;timestamp;pressure;altitude;pressure_sealevel;temperature;humidity
29371;BME280;16357;52.188;7.838;2024-01-07T00:00:48;100970.56;;;3.69;65.23
29371;BME280;16357;52.188;7.838;2024-01-07T00:03:14;100974.38;;;3.65;65.57
29371;BME280;16357;52.188;7.838;2024-01-07T00:05:41;100971.94;;;3.62;65.83
29371;BME280;16357;52.188;7.838;2024-01-07T00:08:07;100986.28;;;3.59;65.92
29371;BME280;16357;52.188;7.838;2024-01-07T00:10:34;100987.34;;;3.57;65.91
29371;BME280;16357;52.188;7.838;2024-01-07T00:13:00;100987.63;;;3.52;65.50
29371;BME280;16357;52.188;7.838;2024-01-07T00:15:27;100985.19;;;3.49;65.23
29371;BME280;16357;52.188;7.838;2024-01-07T00:17:53;100989.88;;;3.45;65.37
29371;BME280;16357;52.188;7.838;2024-01-07T00:20:20;100999.81;;;3.42;65.68
29371;BME280;16357;52.188;7.838;2024-01-07T00:22:47;100997.28;;;3.40;65.50
29371;BME280;16357;52.188;7.838;2024-01-07T00:25:13;100992.28;;;3.36;65.79
29371;BME280;16357;52.188;7.838;2024-01-07T00:27:40;100991.44;;;3.35;65.66
29371;BME280;16357;52.188;7.838;2024-01-07T00:30:06;100993.34;;;3.33;66.17
29371;BME280;16357;52.188;7.838;2024-01-07T00:32:33;101000.34;;;3.34;66.11
29371;BME280;16357;52.188;7.838;2024-01-07T00:34:59;101002.16;;;3.34;66.21
29371;BME280;16357;52.188;7.838;2024-01-07T00:37:26;101004.72;;;3.35;66.02
29371;BME280;16357;52.188;7.838;2024-01-07T00:39:52;101011.81;;;3.35;65.84
29371;BME280;16357;52.188;7.838;2024-01-07T00:42:19;101003.00;;;3.34;65.95
29371;BME280;16357;52.188;7.838;2024-01-07T00:44:45;101009.25;;;3.33;65.33
29371;BME280;16357;52.188;7.838;2024-01-07T00:47:12;101008.50;;;3.31;65.61
29371;BME280;16357;52.188;7.838;2024-01-07T00:49:38;101009.56;;;3.28;65.51
29371;BME280;16357;52.188;7.838;2024-01-07T00:52:06;101017.63;;;3.27;65.45
29371;BME280;16357;52.188;7.838;2024-01-07T00:54:33;101009.88;;;3.24;65.30
29371;BME280;16357;52.188;7.838;2024-01-07T00:56:59;101018.78;;;3.23;65.65
29371;BME280;16357;52.188;7.838;2024-01-07T00:59:28;101025.03;;;3.22;65.62
29371;BME280;16357;52.188;7.838;2024-01-07T01:01:55;101037.44;;;3.21;65.61
29371;BME280;16357;52.188;7.838;2024-01-07T01:04:21;101039.34;;;3.19;65.61
29371;BME280;16357;52.188;7.838;2024-01-07T01:06:48;101034.13;;;3.18;65.51
29371;BME280;16357;52.188;7.838;2024-01-07T01:09:15;101030.72;;;3.16;65.51
29371;BME280;16357;52.188;7.838;2024-01-07T01:11:41;101051.94;;;3.16;65.42
29371;BME280;16357;52.188;7.838;2024-01-07T01:14:07;101042.28;;;3.15;65.52
29371;BME280;16357;52.188;7.838;2024-01-07T01:16:34;101039.72;;;3.13;65.50
29371;BME280;16357;52.188;7.838;2024-01-07T01:19:00;101037.09;;;3.13;65.79
29371;BME280;16357;52.188;7.838;2024-01-07T01:21:27;101038.13;;;3.11;65.37
29371;BME280;16357;52.188;7.838;2024-01-07T01:23:54;101049.69;;;3.10;65.55
29371;BME280;16357;52.188;7.838;2024-01-07T01:26:20;101051.50;;;3.09;65.47
29371;BME280;16357;52.188;7.838;2024-01-07T01:28:47;101053.31;;;3.08;65.65
29371;BME280;16357;52.188;7.838;2024-01-07T01:31:14;101057.66;;;3.10;65.79
29371;BME280;16357;52.188;7.838;2024-01-07T01:33:41;101060.38;;;3.08;65.54
29371;BME280;16357;52.188;7.838;2024-01-07T01:36:08;101066.56;;;3.08;65.61
29371;BME280;16357;52.188;7.838;2024-01-07T01:38:34;101064.84;;;3.07;65.39
29371;BME280;16357;52.188;7.838;2024-01-07T01:41:01;101070.16;;;3.07;65.61
29371;BME280;16357;52.188;7.838;2024-01-07T01:43:28;101073.75;;;3.06;65.57
29371;BME280;16357;52.188;7.838;2024-01-07T01:45:56;101073.75;;;3.06;65.54
29371;BME280;16357;52.188;7.838;2024-01-07T01:48:24;101072.91;;;3.06;65.54
29371;BME280;16357;52.188;7.838;2024-01-07T01:50:52;101077.38;;;3.05;65.70
29371;BME280;16357;52.188;7.838;2024-01-07T01:53:20;101072.06;;;3.05;65.50
29371;BME280;16357;52.188;7.838;2024-01-07T01:55:46;101085.31;;;3.05;65.74
29371;BME280;16357;52.188;7.838;2024-01-07T01:58:13;101084.38;;;3.06;65.53
29371;BME280;16357;52.188;7.838;2024-01-07T02:00:40;101087.97;;;3.05;65.23
29371;BME280;16357;52.188;7.838;2024-01-07T02:03:07;101095.94;;;3.05;65.36
29371;BME280;16357;52.188;7.838;2024-01-07T02:05:33;101097.69;;;3.05;65.29
29371;BME280;16357;52.188;7.838;2024-01-07T02:08:00;101100.56;;;3.02;65.45
29371;BME280;16357;52.188;7.838;2024-01-07T02:10:26;101101.41;;;3.02;65.40
29371;BME280;16357;52.188;7.838;2024-01-07T02:12:57;101106.91;;;2.99;65.31
29371;BME280;16357;52.188;7.838;2024-01-07T02:15:23;101117.63;;;2.98;65.53
29371;BME280;16357;52.188;7.838;2024-01-07T02:17:50;101124.69;;;2.97;65.18
29371;BME280;16357;52.188;7.838;2024-01-07T02:20:16;101126.63;;;2.95;65.25
29371;BME280;16357;52.188;7.838;2024-01-07T02:22:43;101109.84;;;2.95;65.25
29371;BME280;16357;52.188;7.838;2024-01-07T02:25:09;101105.50;;;2.94;65.39
29371;BME280;16357;52.188;7.838;2024-01-07T02:27:36;101122.44;;;2.91;65.11
29371;BME280;16357;52.188;7.838;2024-01-07T02:30:02;101113.66;;;2.91;65.29
29371;BME280;16357;52.188;7.838;2024-01-07T02:32:29;101124.34;;;2.89;65.00
29371;BME280;16357;52.188;7.838;2024-01-07T02:35:01;101127.94;;;2.88;65.26
29371;BME280;16357;52.188;7.838;2024-01-07T02:37:27;101136.84;;;2.87;65.36
29371;BME280;16357;52.188;7.838;2024-01-07T02:39:54;101132.41;;;2.88;65.43
29371;BME280;16357;52.188;7.838;2024-01-07T02:42:27;101135.88;;;2.88;65.27
29371;BME280;16357;52.188;7.838;2024-01-07T02:44:53;101136.66;;;2.90;65.51
29371;BME280;16357;52.188;7.838;2024-01-07T02:47:20;101140.22;;;2.89;65.13
29371;BME280;16357;52.188;7.838;2024-01-07T02:49:46;101138.53;;;2.88;64.93
29371;BME280;16357;52.188;7.838;2024-01-07T02:52:13;101143.00;;;2.88;64.91
29371;BME280;16357;52.188;7.838;2024-01-07T02:54:39;101150.00;;;2.89;65.06
29371;BME280;16357;52.188;7.838;2024-01-07T02:57:06;101138.53;;;2.88;65.19
29371;BME280;16357;52.188;7.838;2024-01-07T02:59:33;101150.00;;;2.89;65.44
29371;BME280;16357;52.188;7.838;2024-01-07T03:01:59;101153.59;;;2.88;64.93
29371;BME280;16357;52.188;7.838;2024-01-07T03:04:26;101147.53;;;2.85;64.82
29371;BME280;16357;52.188;7.838;2024-01-07T03:06:52;101143.19;;;2.84;64.85
29371;BME280;16357;52.188;7.838;2024-01-07T03:09:19;101153.13;;;2.81;64.59
29371;BME280;16357;52.188;7.838;2024-01-07T03:11:45;101154.16;;;2.78;64.74
29371;BME280;16357;52.188;7.838;2024-01-07T03:14:12;101159.66;;;2.75;64.52
29371;BME280;16357;52.188;7.838;2024-01-07T03:16:38;101154.63;;;2.71;64.62
29371;BME280;16357;52.188;7.838;2024-01-07T03:19:05;101152.19;;;2.68;64.71
29371;BME280;16357;52.188;7.838;2024-01-07T03:21:31;101162.97;;;2.64;64.79
29371;BME280;16357;52.188;7.838;2024-01-07T03:23:58;101178.09;;;2.62;64.75
29371;BME280;16357;52.188;7.838;2024-01-07T03:26:29;101179.06;;;2.61;65.18
29371;BME280;16357;52.188;7.838;2024-01-07T03:28:56;101177.34;;;2.60;65.02
29371;BME280;16357;52.188;7.838;2024-01-07T03:31:26;101182.75;;;2.59;64.93
29371;BME280;16357;52.188;7.838;2024-01-07T03:33:53;101182.81;;;2.57;64.99
29371;BME280;16357;52.188;7.838;2024-01-07T03:36:19;101180.19;;;2.57;64.97
29371;BME280;16357;52.188;7.838;2024-01-07T03:38:46;101189.09;;;2.56;64.94
29371;BME280;16357;52.188;7.838;2024-01-07T03:41:17;101196.06;;;2.57;65.04
29371;BME280;16357;52.188;7.838;2024-01-07T03:43:48;101195.16;;;2.58;65.05
29371;BME280;16357;52.188;7.838;2024-01-07T03:46:16;101189.84;;;2.58;64.96
29371;BME280;16357;52.188;7.838;2024-01-07T03:48:43;101196.00;;;2.59;64.76
29371;BME280;16357;52.188;7.838;2024-01-07T03:51:10;101189.84;;;2.58;64.62
29371;BME280;16357;52.188;7.838;2024-01-07T03:53:36;101194.25;;;2.58;64.91
29371;BME280;16357;52.188;7.838;2024-01-07T03:56:03;101196.91;;;2.58;64.62
29371;BME280;16357;52.188;7.838;2024-01-07T03:58:29;101199.47;;;2.59;65.26
29371;BME280;16357;52.188;7.838;2024-01-07T04:00:56;101198.53;;;2.60;65.12
29371;BME280;16357;52.188;7.838;2024-01-07T04:03:22;101204.59;;;2.62;64.66
29371;BME280;16357;52.188;7.838;2024-01-07T04:05:49;101210.66;;;2.64;64.94
29371;BME280;16357;52.188;7.838;2024-01-07T04:08:16;101215.94;;;2.64;64.88
29371;BME280;16357;52.188;7.838;2024-01-07T04:10:42;101222.94;;;2.66;64.58
29371;BME280;16357;52.188;7.838;2024-01-07T04:13:09;101216.78;;;2.65;64.56
29371;BME280;16357;52.188;7.838;2024-01-07T04:15:36;101222.94;;;2.66;64.49
29371;BME280;16357;52.188;7.838;2024-01-07T04:18:04;101230.16;;;2.63;64.11
29371;BME280;16357;52.188;7.838;2024-01-07T04:20:31;101216.91;;;2.63;64.33
29371;BME280;16357;52.188;7.838;2024-01-07T04:22:58;101223.13;;;2.62;64.46
29371;BME280;16357;52.188;7.838;2024-01-07T04:25:24;101218.88;;;2.60;64.12
29371;BME280;16357;52.188;7.838;2024-01-07T04:27:51;101238.25;;;2.60;64.58
29371;BME280;16357;52.188;7.838;2024-01-07T04:30:18;101229.47;;;2.60;64.29
29371;BME280;16357;52.188;7.838;2024-01-07T04:32:45;101243.56;;;2.60;64.50
29371;BME280;16357;52.188;7.838;2024-01-07T04:35:11;101239.97;;;2.61;64.35
29371;BME280;16357;52.188;7.838;2024-01-07T04:37:38;101236.47;;;2.61;64.49
29371;BME280;16357;52.188;7.838;2024-01-07T04:40:05;101242.63;;;2.61;64.09
29371;BME280;16357;52.188;7.838;2024-01-07T04:42:32;101243.47;;;2.62;64.23
29371;BME280;16357;52.188;7.838;2024-01-07T04:44:59;101245.28;;;2.61;64.14
29371;BME280;16357;52.188;7.838;2024-01-07T04:47:30;101250.56;;;2.61;64.43
29371;BME280;16357;52.188;7.838;2024-01-07T04:49:57;101263.81;;;2.61;64.04
29371;BME280;16357;52.188;7.838;2024-01-07T04:52:25;101255.09;;;2.59;64.11
29371;BME280;16357;52.188;7.838;2024-01-07T04:54:52;101255.09;;;2.59;63.88
29371;BME280;16357;52.188;7.838;2024-01-07T04:57:19;101260.47;;;2.58;63.85
29371;BME280;16357;52.188;7.838;2024-01-07T04:59:46;101269.38;;;2.57;63.83
29371;BME280;16357;52.188;7.838;2024-01-07T05:02:13;101274.75;;;2.55;63.94
29371;BME280;16357;52.188;7.838;2024-01-07T05:04:40;101270.41;;;2.54;63.93
29371;BME280;16357;52.188;7.838;2024-01-07T05:07:07;101269.56;;;2.54;64.01
29371;BME280;16357;52.188;7.838;2024-01-07T05:09:33;101282.88;;;2.52;64.10
29371;BME280;16357;52.188;7.838;2024-01-07T05:12:00;101274.94;;;2.52;63.99
29371;BME280;16357;52.188;7.838;2024-01-07T05:14:27;101272.41;;;2.51;63.87
29371;BME280;16357;52.188;7.838;2024-01-07T05:16:54;101276.84;;;2.50;64.11
29371;BME280;16357;52.188;7.838;2024-01-07T05:19:21;101290.16;;;2.49;64.03
29371;BME280;16357;52.188;7.838;2024-01-07T05:21:47;101281.47;;;2.47;64.12
29371;BME280;16357;52.188;7.838;2024-01-07T05:24:14;101282.50;;;2.44;63.91
29371;BME280;16357;52.188;7.838;2024-01-07T05:26:42;101297.59;;;2.42;64.30
29371;BME280;16357;52.188;7.838;2024-01-07T05:29:08;101303.88;;;2.41;64.05
29371;BME280;16357;52.188;7.838;2024-01-07T05:31:35;101303.94;;;2.39;64.24
29371;BME280;16357;52.188;7.838;2024-01-07T05:34:02;101315.47;;;2.38;63.88
29371;BME280;16357;52.188;7.838;2024-01-07T05:36:29;101315.47;;;2.38;64.38
29371;BME280;16357;52.188;7.838;2024-01-07T05:38:55;101317.34;;;2.36;64.23
29371;BME280;16357;52.188;7.838;2024-01-07T05:41:22;101321.81;;;2.36;64.26
29371;BME280;16357;52.188;7.838;2024-01-07T05:43:49;101326.25;;;2.35;64.26
29371;BME280;16357;52.188;7.838;2024-01-07T05:46:15;101322.84;;;2.33;64.32
29371;BME280;16357;52.188;7.838;2024-01-07T05:48:46;101325.59;;;2.32;64.19
29371;BME280;16357;52.188;7.838;2024-01-07T05:51:13;101327.47;;;2.30;64.42
29371;BME280;16357;52.188;7.838;2024-01-07T05:53:41;101329.34;;;2.28;64.35
29371;BME280;16357;52.188;7.838;2024-01-07T05:56:07;101333.88;;;2.26;64.18
29371;BME280;16357;52.188;7.838;2024-01-07T05:58:34;101339.34;;;2.23;64.36
29371;BME280;16357;52.188;7.838;2024-01-07T06:01:00;101333.28;;;2.20;64.17
29371;BME280;16357;52.188;7.838;2024-01-07T06:03:27;101342.34;;;2.16;64.38
29371;BME280;16357;52.188;7.838;2024-01-07T06:05:54;101350.47;;;2.13;64.55
29371;BME280;16357;52.188;7.838;2024-01-07T06:08:20;101347.13;;;2.10;64.63
29371;BME280;16357;52.188;7.838;2024-01-07T06:10:47;101338.59;;;2.05;64.44
29371;BME280;16357;52.188;7.838;2024-01-07T06:13:13;101354.56;;;2.03;64.70
29371;BME280;16357;52.188;7.838;2024-01-07T06:15:40;101360.13;;;1.98;64.56
29371;BME280;16357;52.188;7.838;2024-01-07T06:18:06;101343.56;;;1.95;64.81
29371;BME280;16357;52.188;7.838;2024-01-07T06:20:33;101357.81;;;1.92;64.73
29371;BME280;16357;52.188;7.838;2024-01-07T06:22:59;101354.47;;;1.89;65.00
29371;BME280;16357;52.188;7.838;2024-01-07T06:25:26;101367.03;;;1.85;65.01
29371;BME280;16357;52.188;7.838;2024-01-07T06:27:53;101374.13;;;1.85;64.99
29371;BME280;16357;52.188;7.838;2024-01-07T06:30:19;101383.06;;;1.82;64.85
29371;BME280;16357;52.188;7.838;2024-01-07T06:32:46;101385.91;;;1.79;64.66
29371;BME280;16357;52.188;7.838;2024-01-07T06:35:12;101384.34;;;1.75;64.68
29371;BME280;16357;52.188;7.838;2024-01-07T06:37:39;101383.66;;;1.71;64.82
29371;BME280;16357;52.188;7.838;2024-01-07T06:40:05;101385.72;;;1.66;64.84
29371;BME280;16357;52.188;7.838;2024-01-07T06:42:32;101399.06;;;1.63;64.93
29371;BME280;16357;52.188;7.838;2024-01-07T06:44:59;101394.06;;;1.59;64.80
29371;BME280;16357;52.188;7.838;2024-01-07T06:47:25;101423.31;;;1.56;65.25
29371;BME280;16357;52.188;7.838;2024-01-07T06:49:52;101408.53;;;1.51;65.47
29371;BME280;16357;52.188;7.838;2024-01-07T06:52:18;101424.63;;;1.47;65.45
29371;BME280;16357;52.188;7.838;2024-01-07T06:54:47;101416.09;;;1.42;65.65
29371;BME280;16357;52.188;7.838;2024-01-07T06:57:14;101445.50;;;1.36;65.82
29371;BME280;16357;52.188;7.838;2024-01-07T06:59:40;101429.97;;;1.29;65.65
29371;BME280;16357;52.188;7.838;2024-01-07T07:02:07;101426.69;;;1.24;65.91
29371;BME280;16357;52.188;7.838;2024-01-07T07:04:33;101438.44;;;1.19;66.07
29371;BME280;16357;52.188;7.838;2024-01-07T07:07:00;101453.59;;;1.15;66.04
29371;BME280;16357;52.188;7.838;2024-01-07T07:09:27;101453.81;;;1.10;66.17
29371;BME280;16357;52.188;7.838;2024-01-07T07:11:53;101460.03;;;1.09;65.94
29371;BME280;16357;52.188;7.838;2024-01-07T07:14:20;101468.97;;;1.07;66.02
29371;BME280;16357;52.188;7.838;2024-01-07T07:16:46;101472.47;;;1.07;66.06
29371;BME280;16357;52.188;7.838;2024-01-07T07:19:13;101473.41;;;1.06;66.01
29371;BME280;16357;52.188;7.838;2024-01-07T07:21:41;101482.19;;;1.07;65.97
29371;BME280;16357;52.188;7.838;2024-01-07T07:24:08;101473.34;;;1.08;65.38
29371;BME280;16357;52.188;7.838;2024-01-07T07:26:34;101500.63;;;1.08;65.57
29371;BME280;16357;52.188;7.838;2024-01-07T07:29:02;101518.16;;;1.09;65.73
29371;BME280;16357;52.188;7.838;2024-01-07T07:31:28;101527.72;;;1.12;65.61
29371;BME280;16357;52.188;7.838;2024-01-07T07:33:55;101536.44;;;1.14;65.67
29371;BME280;16357;52.188;7.838;2024-01-07T07:36:22;101540.72;;;1.17;65.41
29371;BME280;16357;52.188;7.838;2024-01-07T07:38:50;101542.38;;;1.19;65.05
29371;BME280;16357;52.188;7.838;2024-01-07T07:41:16;101548.44;;;1.21;65.01
29371;BME280;16357;52.188;7.838;2024-01-07T07:43:43;101550.97;;;1.23;64.86
29371;BME280;16357;52.188;7.838;2024-01-07T07:46:09;101552.63;;;1.25;64.47
29371;BME280;16357;52.188;7.838;2024-01-07T07:48:36;101556.03;;;1.27;64.79
29371;BME280;16357;52.188;7.838;2024-01-07T07:51:03;101562.13;;;1.29;64.72
29371;BME280;16357;52.188;7.838;2024-01-07T07:53:30;101565.50;;;1.31;64.46
29371;BME280;16357;52.188;7.838;2024-01-07T07:55:56;101582.16;;;1.34;64.26
29371;BME280;16357;52.188;7.838;2024-01-07T07:58:23;101564.50;;;1.34;64.23
29371;BME280;16357;52.188;7.838;2024-01-07T08:00:49;101576.81;;;1.35;64.12
29371;BME280;16357;52.188;7.838;2024-01-07T08:03:15;101578.50;;;1.36;64.12
29371;BME280;16357;52.188;7.838;2024-01-07T08:05:42;101573.22;;;1.36;63.46
29371;BME280;16357;52.188;7.838;2024-01-07T08:08:08;101578.50;;;1.36;63.51
29371;BME280;16357;52.188;7.838;2024-01-07T08:10:35;101586.44;;;1.36;63.47
29371;BME280;16357;52.188;7.838;2024-01-07T08:13:01;101586.44;;;1.36;63.35
29371;BME280;16357;52.188;7.838;2024-01-07T08:15:28;101597.00;;;1.36;63.54
29371;BME280;16357;52.188;7.838;2024-01-07T08:17:55;101595.22;;;1.37;62.92
29371;BME280;16357;52.188;7.838;2024-01-07T08:20:21;101597.00;;;1.36;62.87
29371;BME280;16357;52.188;7.838;2024-01-07T08:22:47;101607.69;;;1.35;62.66
29371;BME280;16357;52.188;7.838;2024-01-07T08:25:14;101609.38;;;1.36;63.05
29371;BME280;16357;52.188;7.838;2024-01-07T08:27:41;101611.09;;;1.37;62.99
29371;BME280;16357;52.188;7.838;2024-01-07T08:30:08;101623.28;;;1.39;63.08
29371;BME280;16357;52.188;7.838;2024-01-07T08:32:34;101616.25;;;1.40;63.21
29371;BME280;16357;52.188;7.838;2024-01-07T08:35:01;101622.22;;;1.43;63.12
29371;BME280;16357;52.188;7.838;2024-01-07T08:37:28;101624.66;;;1.48;63.04
29371;BME280;16357;52.188;7.838;2024-01-07T08:39:54;101633.28;;;1.51;62.64
29371;BME280;16357;52.188;7.838;2024-01-07T08:42:21;101635.84;;;1.53;62.55
29371;BME280;16357;52.188;7.838;2024-01-07T08:44:47;101641.03;;;1.54;62.54
29371;BME280;16357;52.188;7.838;2024-01-07T08:47:14;101640.03;;;1.57;62.34
29371;BME280;16357;52.188;7.838;2024-01-07T08:49:41;101641.78;;;1.58;62.10
29371;BME280;16357;52.188;7.838;2024-01-07T08:52:07;101652.25;;;1.60;61.69
29371;BME280;16357;52.188;7.838;2024-01-07T08:54:34;101661.03;;;1.60;61.65
29371;BME280;16357;52.188;7.838;2024-01-07T08:57:01;101666.34;;;1.60;61.45
29371;BME280;16357;52.188;7.838;2024-01-07T08:59:27;101670.69;;;1.61;61.87
29371;BME280;16357;52.188;7.838;2024-01-07T09:01:54;101665.31;;;1.63;61.71
29371;BME280;16357;52.188;7.838;2024-01-07T09:04:20;101670.63;;;1.63;61.54
29371;BME280;16357;52.188;7.838;2024-01-07T09:06:48;101667.13;;;1.62;61.07
29371;BME280;16357;52.188;7.838;2024-01-07T09:09:14;101690.91;;;1.62;60.89
29371;BME280;16357;52.188;7.838;2024-01-07T09:11:41;101684.00;;;1.60;61.06
29371;BME280;16357;52.188;7.838;2024-01-07T09:14:07;101685.00;;;1.57;61.07
29371;BME280;16357;52.188;7.838;2024-01-07T09:16:34;101688.59;;;1.56;60.64
29371;BME280;16357;52.188;7.838;2024-01-07T09:19:01;101696.69;;;1.53;60.54
29371;BME280;16357;52.188;7.838;2024-01-07T09:21:28;101692.38;;;1.50;60.86
29371;BME280;16357;52.188;7.838;2024-01-07T09:23:54;101696.78;;;1.50;61.00
29371;BME280;16357;52.188;7.838;2024-01-07T09:26:21;101701.22;;;1.49;61.06
29371;BME280;16357;52.188;7.838;2024-01-07T09:28:47;101714.41;;;1.51;61.03
29371;BME280;16357;52.188;7.838;2024-01-07T09:31:14;101723.13;;;1.53;61.45
29371;BME280;16357;52.188;7.838;2024-01-07T09:33:41;101724.75;;;1.56;61.04
29371;BME280;16357;52.188;7.838;2024-01-07T09:36:08;101725.44;;;1.59;61.11
29371;BME280;16357;52.188;7.838;2024-01-07T09:38:51;101724.34;;;1.63;60.74
29371;BME280;16357;52.188;7.838;2024-01-07T09:41:20;101728.56;;;1.67;60.93
29371;BME280;16357;52.188;7.838;2024-01-07T09:43:46;101736.50;;;1.67;60.65
29371;BME280;16357;52.188;7.838;2024-01-07T09:46:13;101741.81;;;1.67;60.17
29371;BME280;16357;52.188;7.838;2024-01-07T09:48:40;101735.81;;;1.64;59.76
29371;BME280;16357;52.188;7.838;2024-01-07T09:51:09;101749.09;;;1.62;59.79
29371;BME280;16357;52.188;7.838;2024-01-07T09:53:38;101745.81;;;1.57;59.62
29371;BME280;16357;52.188;7.838;2024-01-07T09:56:38;101745.19;;;1.52;59.35
29371;BME280;16357;52.188;7.838;2024-01-07T09:59:01;101740.97;;;1.48;60.01
29371;BME280;16357;52.188;7.838;2024-01-07T10:01:28;101747.34;;;1.44;60.13
29371;BME280;16357;52.188;7.838;2024-01-07T10:03:54;101754.41;;;1.43;60.08
29371;BME280;16357;52.188;7.838;2024-01-07T10:06:23;101753.56;;;1.43;60.43
29371;BME280;16357;52.188;7.838;2024-01-07T10:08:49;101751.69;;;1.45;60.60
29371;BME280;16357;52.188;7.838;2024-01-07T10:11:16;101758.59;;;1.47;60.42
29371;BME280;16357;52.188;7.838;2024-01-07T10:13:45;101749.69;;;1.50;60.59
29371;BME280;16357;52.188;7.838;2024-01-07T10:16:14;101757.56;;;1.51;60.47
29371;BME280;16357;52.188;7.838;2024-01-07T10:18:41;101762.69;;;1.54;60.20
29371;BME280;16357;52.188;7.838;2024-01-07T10:21:07;101753.84;;;1.56;60.14
29371;BME280;16357;52.188;7.838;2024-01-07T10:23:34;101760.84;;;1.57;59.76
29371;BME280;16357;52.188;7.838;2024-01-07T10:26:00;101764.34;;;1.57;59.74
29371;BME280;16357;52.188;7.838;2024-01-07T10:28:37;101764.34;;;1.57;60.08
29371;BME280;16357;52.188;7.838;2024-01-07T10:31:03;101764.34;;;1.57;60.29
29371;BME280;16357;52.188;7.838;2024-01-07T10:33:31;101758.03;;;1.60;60.11
29371;BME280;16357;52.188;7.838;2024-01-07T10:36:06;101761.38;;;1.63;60.37
29371;BME280;16357;52.188;7.838;2024-01-07T10:38:33;101770.09;;;1.65;60.23
29371;BME280;16357;52.188;7.838;2024-01-07T10:41:00;101770.84;;;1.69;60.62
29371;BME280;16357;52.188;7.838;2024-01-07T10:43:29;101769.75;;;1.73;60.64
29371;BME280;16357;52.188;7.838;2024-01-07T10:46:00;101779.16;;;1.79;60.45
29371;BME280;16357;52.188;7.838;2024-01-07T10:48:30;101774.50;;;1.84;60.66
29371;BME280;16357;52.188;7.838;2024-01-07T10:51:00;101784.81;;;1.90;60.37
29371;BME280;16357;52.188;7.838;2024-01-07T10:53:34;101778.41;;;1.94;59.94
29371;BME280;16357;52.188;7.838;2024-01-07T10:56:03;101780.91;;;1.97;59.56
29371;BME280;16357;52.188;7.838;2024-01-07T10:58:36;101778.09;;;2.00;59.73
29371;BME280;16357;52.188;7.838;2024-01-07T11:01:03;101779.84;;;2.01;59.63
29371;BME280;16357;52.188;7.838;2024-01-07T11:06:52;101787.63;;;2.04;59.19
29371;BME280;16357;52.188;7.838;2024-01-07T11:09:36;101787.63;;;2.04;59.24
29371;BME280;16357;52.188;7.838;2024-01-07T11:12:04;101780.47;;;2.06;59.71
29371;BME280;16357;52.188;7.838;2024-01-07T11:14:39;101775.19;;;2.06;59.71
29371;BME280;16357;52.188;7.838;2024-01-07T11:17:07;101787.47;;;2.07;59.99
29371;BME280;16357;52.188;7.838;2024-01-07T11:19:35;101785.59;;;2.09;59.66
29371;BME280;16357;52.188;7.838;2024-01-07T11:22:21;101782.03;;;2.10;59.44
29371;BME280;16357;52.188;7.838;2024-01-07T11:24:51;101785.44;;;2.12;59.66
29371;BME280;16357;52.188;7.838;2024-01-07T11:27:20;101773.84;;;2.15;59.54
29371;BME280;16357;52.188;7.838;2024-01-07T11:29:57;101787.03;;;2.16;59.56
29371;BME280;16357;52.188;7.838;2024-01-07T11:32:30;101773.53;;;2.21;59.58
29371;BME280;16357;52.188;7.838;2024-01-07T11:34:57;101768.19;;;2.23;58.78
29371;BME280;16357;52.188;7.838;2024-01-07T11:37:26;101785.69;;;2.25;59.24
29371;BME280;16357;52.188;7.838;2024-01-07T11:39:56;101779.41;;;2.28;59.14
29371;BME280;16357;52.188;7.838;2024-01-07T11:42:24;101785.47;;;2.30;58.51
29371;BME280;16357;52.188;7.838;2024-01-07T11:44:54;101787.97;;;2.33;59.19
29371;BME280;16357;52.188;7.838;2024-01-07T11:47:22;101789.59;;;2.35;58.96
29371;BME280;16357;52.188;7.838;2024-01-07T11:49:49;101799.97;;;2.40;59.37
29371;BME280;16357;52.188;7.838;2024-01-07T11:52:17;101797.94;;;2.45;58.52
29371;BME280;16357;52.188;7.838;2024-01-07T11:54:44;101798.63;;;2.49;58.70
29371;BME280;16357;52.188;7.838;2024-01-07T11:57:10;101790.47;;;2.53;58.41
29371;BME280;16357;52.188;7.838;2024-01-07T11:59:37;101793.88;;;2.55;58.39
29371;BME280;16357;52.188;7.838;2024-01-07T12:02:08;101799.09;;;2.57;58.22
29371;BME280;16357;52.188;7.838;2024-01-07T12:04:35;101787.56;;;2.58;58.16
29371;BME280;16357;52.188;7.838;2024-01-07T12:07:01;101799.03;;;2.58;58.34
29371;BME280;16357;52.188;7.838;2024-01-07T12:09:30;101789.19;;;2.60;58.34
29371;BME280;16357;52.188;7.838;2024-01-07T12:11:57;101793.63;;;2.60;58.31
29371;BME280;16357;52.188;7.838;2024-01-07T12:14:24;101790.06;;;2.61;57.76
29371;BME280;16357;52.188;7.838;2024-01-07T12:16:50;101796.22;;;2.61;57.50
29371;BME280;16357;52.188;7.838;2024-01-07T12:19:17;101791.78;;;2.62;58.05
29371;BME280;16357;52.188;7.838;2024-01-07T12:21:44;101786.47;;;2.62;57.86
29371;BME280;16357;52.188;7.838;2024-01-07T12:24:10;101793.41;;;2.64;57.95
29371;BME280;16357;52.188;7.838;2024-01-07T12:26:36;101795.09;;;2.66;58.13
29371;BME280;16357;52.188;7.838;2024-01-07T12:29:04;101792.31;;;2.69;58.12
29371;BME280;16357;52.188;7.838;2024-01-07T12:31:33;101795.72;;;2.71;58.40
29371;BME280;16357;52.188;7.838;2024-01-07T12:34:02;101799.94;;;2.75;58.28
29371;BME280;16357;52.188;7.838;2024-01-07T12:36:30;101798.84;;;2.79;58.55
29371;BME280;16357;52.188;7.838;2024-01-07T12:38:57;101798.69;;;2.82;58.44
29371;BME280;16357;52.188;7.838;2024-01-07T12:41:24;101796.72;;;2.85;58.19
29371;BME280;16357;52.188;7.838;2024-01-07T12:43:50;101800.06;;;2.89;57.79
29371;BME280;16357;52.188;7.838;2024-01-07T12:46:17;101802.66;;;2.91;57.85
29371;BME280;16357;52.188;7.838;2024-01-07T12:48:44;101807.09;;;2.90;57.47
29371;BME280;16357;52.188;7.838;2024-01-07T12:51:10;101807.16;;;2.89;57.44
29371;BME280;16357;52.188;7.838;2024-01-07T12:53:37;101808.19;;;2.86;57.43
29371;BME280;16357;52.188;7.838;2024-01-07T12:56:03;101808.34;;;2.83;57.90
29371;BME280;16357;52.188;7.838;2024-01-07T12:58:30;101810.31;;;2.79;57.97
29371;BME280;16357;52.188;7.838;2024-01-07T13:00:57;101813.03;;;2.78;57.79
29371;BME280;16357;52.188;7.838;2024-01-07T13:03:24;101816.75;;;2.74;58.05